sensor_id;sensor_type;location;lat;lon;timestamp;pressure;altitude;pressure_sealevel;temperature;humidity
43701;BME280;58809;47.984;7.964;2023-06-22T00:00:29;97141.59;;;19.47;100.00
43701;BME280;58809;47.984;7.964;2023-06-22T00:03:31;97158.53;;;19.35;100.00
43701;BME280;58809;47.984;7.964;2023-06-22T00:06:33;97180.63;;;19.26;100.00
43701;BME280;58809;47.984;7.964;2023-06-22T00:09:34;97179.72;;;19.08;100.00
43701;BME280;58809;47.984;7.964;2023-06-22T00:12:36;97165.13;;;19.16;100.00
43701;BME280;58809;47.984;7.964;2023-06-22T00:15:39;97171.66;;;19.20;100.00
43701;BME280;58809;47.984;7.964;2023-06-22T00:18:41;97175.84;;;19.16;100.00
43701;BME280;58809;47.984;7.964;2023-06-22T00:21:48;97173.44;;;19.14;100.00
43701;BME280;58809;47.984;7.964;2023-06-22T00:24:55;97170.06;;;19.07;100.00
43701;BME280;58809;47.984;7.964;2023-06-22T00:27:57;97164.13;;;19.05;100.00
43701;BME280;58809;47.984;7.964;2023-06-22T00:30:58;97167.94;;;18.97;100.00
43701;BME280;58809;47.984;7.964;2023-06-22T00:34:00;97166.13;;;18.86;100.00
43701;BME280;58809;47.984;7.964;2023-06-22T00:37:01;97167.75;;;18.87;100.00
43701;BME280;58809;47.984;7.964;2023-06-22T00:40:04;97169.28;;;18.83;100.00
43701;BME280;58809;47.984;7.964;2023-06-22T00:43:06;97166.69;;;18.76;100.00
43701;BME280;58809;47.984;7.964;2023-06-22T00:46:09;97165.19;;;18.69;100.00
43701;BME280;58809;47.984;7.964;2023-06-22T00:49:11;97163.75;;;18.66;100.00
43701;BME280;58809;47.984;7.964;2023-06-22T00:52:12;97174.84;;;18.70;100.00
43701;BME280;58809;47.984;7.964;2023-06-22T00:55:23;97167.84;;;18.69;100.00
43701;BME280;58809;47.984;7.964;2023-06-22T00:58:25;97171.13;;;18.71;100.00
43701;BME280;58809;47.984;7.964;2023-06-22T01:01:27;97174.72;;;18.64;100.00
43701;BME280;58809;47.984;7.964;2023-06-22T01:04:37;97167.75;;;18.63;100.00
43701;BME280;58809;47.984;7.964;2023-06-22T01:07:48;97173.19;;;18.57;100.00
43701;BME280;58809;47.984;7.964;2023-06-22T01:11:01;97171.81;;;18.54;100.00
43701;BME280;58809;47.984;7.964;2023-06-22T01:14:12;97165.50;;;18.37;100.00
43701;BME280;58809;47.984;7.964;2023-06-22T01:17:16;97166.56;;;18.36;100.00
43701;BME280;58809;47.984;7.964;2023-06-22T01:20:20;97163.66;;;18.37;100.00
43701;BME280;58809;47.984;7.964;2023-06-22T01:26:52;97151.63;;;18.16;100.00
43701;BME280;58809;47.984;7.964;2023-06-22T01:29:57;97163.41;;;18.15;100.00
43701;BME280;58809;47.984;7.964;2023-06-22T01:33:04;97159.53;;;18.11;100.00
43701;BME280;58809;47.984;7.964;2023-06-22T01:36:07;97161.03;;;18.07;100.00
43701;BME280;58809;47.984;7.964;2023-06-22T01:39:09;97152.06;;;18.01;100.00
43701;BME280;58809;47.984;7.964;2023-06-22T01:42:12;97151.63;;;18.16;100.00
43701;BME280;58809;47.984;7.964;2023-06-22T01:45:15;97147.78;;;18.12;100.00
43701;BME280;58809;47.984;7.964;2023-06-22T01:48:17;97143.81;;;18.15;100.00
43701;BME280;58809;47.984;7.964;2023-06-22T01:51:20;97159.06;;;18.14;100.00
43701;BME280;58809;47.984;7.964;2023-06-22T01:54:22;97143.81;;;18.15;100.00
43701;BME280;58809;47.984;7.964;2023-06-22T01:57:23;97139.03;;;18.17;100.00
43701;BME280;58809;47.984;7.964;2023-06-22T02:00:27;97126.00;;;18.20;100.00
43701;BME280;58809;47.984;7.964;2023-06-22T02:03:34;97134.41;;;18.12;100.00
43701;BME280;58809;47.984;7.964;2023-06-22T02:06:39;97124.50;;;18.01;100.00
43701;BME280;58809;47.984;7.964;2023-06-22T02:09:46;97132.38;;;17.96;100.00
43701;BME280;58809;47.984;7.964;2023-06-22T02:12:51;97138.19;;;17.93;100.00
43701;BME280;58809;47.984;7.964;2023-06-22T02:15:53;97133.53;;;17.88;100.00
43701;BME280;58809;47.984;7.964;2023-06-22T02:18:55;97131.22;;;17.92;100.00
43701;BME280;58809;47.984;7.964;2023-06-22T02:22:04;97123.78;;;17.94;100.00
43701;BME280;58809;47.984;7.964;2023-06-22T02:25:06;97118.28;;;17.88;100.00
43701;BME280;58809;47.984;7.964;2023-06-22T02:28:08;97114.88;;;17.81;100.00
43701;BME280;58809;47.984;7.964;2023-06-22T02:31:09;97109.97;;;17.78;100.00
43701;BME280;58809;47.984;7.964;2023-06-22T02:34:11;97102.50;;;17.68;100.00
43701;BME280;58809;47.984;7.964;2023-06-22T02:37:19;97098.75;;;17.58;100.00
43701;BME280;58809;47.984;7.964;2023-06-22T02:40:21;97095.19;;;17.64;100.00
43701;BME280;58809;47.984;7.964;2023-06-22T02:43:23;97085.88;;;17.66;100.00
43701;BME280;58809;47.984;7.964;2023-06-22T02:46:25;97084.22;;;17.65;100.00
43701;BME280;58809;47.984;7.964;2023-06-22T02:49:26;97090.41;;;17.66;100.00
43701;BME280;58809;47.984;7.964;2023-06-22T02:52:28;97087.94;;;17.64;100.00
43701;BME280;58809;47.984;7.964;2023-06-22T02:55:30;97081.31;;;17.67;100.00
43701;BME280;58809;47.984;7.964;2023-06-22T02:58:33;97083.63;;;17.63;100.00
43701;BME280;58809;47.984;7.964;2023-06-22T03:01:42;97079.78;;;17.59;100.00
43701;BME280;58809;47.984;7.964;2023-06-22T03:04:52;97071.19;;;17.57;100.00
43701;BME280;58809;47.984;7.964;2023-06-22T03:07:55;97073.63;;;17.59;100.00
43701;BME280;58809;47.984;7.964;2023-06-22T03:10:56;97074.88;;;17.56;100.00
43701;BME280;58809;47.984;7.964;2023-06-22T03:13:59;97067.00;;;17.61;100.00
43701;BME280;58809;47.984;7.964;2023-06-22T03:17:00;97073.06;;;17.57;100.00
43701;BME280;58809;47.984;7.964;2023-06-22T03:20:05;97079.44;;;17.56;100.00
43701;BME280;58809;47.984;7.964;2023-06-22T03:23:10;97080.94;;;17.51;100.00
43701;BME280;58809;47.984;7.964;2023-06-22T03:26:12;97074.66;;;17.46;100.00
43701;BME280;58809;47.984;7.964;2023-06-22T03:29:14;97069.16;;;17.41;100.00
43701;BME280;58809;47.984;7.964;2023-06-22T03:32:19;97057.53;;;17.47;100.00
43701;BME280;58809;47.984;7.964;2023-06-22T03:35:20;97055.69;;;17.47;100.00
43701;BME280;58809;47.984;7.964;2023-06-22T03:38:22;97056.72;;;17.46;100.00
43701;BME280;58809;47.984;7.964;2023-06-22T03:41:28;97060.78;;;17.49;100.00
43701;BME280;58809;47.984;7.964;2023-06-22T03:44:30;97062.06;;;17.46;100.00
43701;BME280;58809;47.984;7.964;2023-06-22T03:47:32;97058.47;;;17.41;100.00
43701;BME280;58809;47.984;7.964;2023-06-22T03:50:34;97058.81;;;17.44;100.00
43701;BME280;58809;47.984;7.964;2023-06-22T03:53:36;97055.69;;;17.47;100.00
43701;BME280;58809;47.984;7.964;2023-06-22T03:56:38;97056.50;;;17.48;100.00
43701;BME280;58809;47.984;7.964;2023-06-22T03:59:39;97049.19;;;17.55;100.00
43701;BME280;58809;47.984;7.964;2023-06-22T04:02:42;97048.97;;;17.57;100.00
43701;BME280;58809;47.984;7.964;2023-06-22T04:05:43;97046.53;;;17.55;100.00
43701;BME280;58809;47.984;7.964;2023-06-22T04:08:46;97052.81;;;17.61;100.00
43701;BME280;58809;47.984;7.964;2023-06-22T04:11:52;97048.63;;;17.65;100.00
43701;BME280;58809;47.984;7.964;2023-06-22T04:14:54;97055.72;;;17.71;100.00
43701;BME280;58809;47.984;7.964;2023-06-22T04:17:56;97051.22;;;17.72;100.00
43701;BME280;58809;47.984;7.964;2023-06-22T04:20:58;97047.81;;;17.76;100.00
43701;BME280;58809;47.984;7.964;2023-06-22T04:23:59;97049.13;;;17.74;100.00
43701;BME280;58809;47.984;7.964;2023-06-22T04:27:01;97049.81;;;17.81;100.00
43701;BME280;58809;47.984;7.964;2023-06-22T04:30:04;97047.06;;;17.87;100.00
43701;BME280;58809;47.984;7.964;2023-06-22T04:33:08;97051.38;;;18.00;100.00
43701;BME280;58809;47.984;7.964;2023-06-22T04:36:10;97057.69;;;18.06;100.00
43701;BME280;58809;47.984;7.964;2023-06-22T04:39:14;97051.38;;;18.12;100.00
43701;BME280;58809;47.984;7.964;2023-06-22T04:42:16;97049.97;;;18.21;100.00
43701;BME280;58809;47.984;7.964;2023-06-22T04:45:18;97054.88;;;18.24;100.00
43701;BME280;58809;47.984;7.964;2023-06-22T04:48:20;97057.53;;;18.36;100.00
43701;BME280;58809;47.984;7.964;2023-06-22T04:51:21;97060.09;;;18.43;100.00
43701;BME280;58809;47.984;7.964;2023-06-22T04:54:23;97061.59;;;18.51;100.00
43701;BME280;58809;47.984;7.964;2023-06-22T04:57:25;97061.69;;;18.67;100.00
43701;BME280;58809;47.984;7.964;2023-06-22T05:00:33;97058.75;;;18.81;100.00
43701;BME280;58809;47.984;7.964;2023-06-22T05:03:37;97062.25;;;18.93;100.00
43701;BME280;58809;47.984;7.964;2023-06-22T05:06:39;97053.69;;;19.08;100.00
43701;BME280;58809;47.984;7.964;2023-06-22T05:09:41;97051.75;;;19.20;100.00
43701;BME280;58809;47.984;7.964;2023-06-22T05:12:43;97048.63;;;19.23;100.00
43701;BME280;58809;47.984;7.964;2023-06-22T05:15:44;97047.78;;;19.23;100.00
43701;BME280;58809;47.984;7.964;2023-06-22T05:18:53;97044.97;;;19.30;100.00
43701;BME280;58809;47.984;7.964;2023-06-22T05:21:55;97045.44;;;19.27;100.00
43701;BME280;58809;47.984;7.964;2023-06-22T05:24:56;97040.59;;;19.40;100.00
43701;BME280;58809;47.984;7.964;2023-06-22T05:27:58;97042.88;;;19.49;100.00
43701;BME280;58809;47.984;7.964;2023-06-22T05:30:59;97043.84;;;19.59;100.00
43701;BME280;58809;47.984;7.964;2023-06-22T05:34:19;97042.72;;;19.72;100.00
43701;BME280;58809;47.984;7.964;2023-06-22T05:37:20;97044.50;;;19.78;100.00
43701;BME280;58809;47.984;7.964;2023-06-22T05:40:22;97051.66;;;19.90;100.00
43701;BME280;58809;47.984;7.964;2023-06-22T05:43:24;97036.09;;;19.92;99.91
43701;BME280;58809;47.984;7.964;2023-06-22T05:46:26;97036.56;;;19.89;100.00
43701;BME280;58809;47.984;7.964;2023-06-22T05:49:27;97047.56;;;20.04;99.52
43701;BME280;58809;47.984;7.964;2023-06-22T05:52:34;97044.88;;;20.04;97.99
43701;BME280;58809;47.984;7.964;2023-06-22T05:55:36;97036.97;;;20.14;97.78
43701;BME280;58809;47.984;7.964;2023-06-22T05:58:37;97032.94;;;20.34;96.63
43701;BME280;58809;47.984;7.964;2023-06-22T06:01:39;97031.47;;;20.43;95.36
43701;BME280;58809;47.984;7.964;2023-06-22T06:04:41;97026.91;;;20.61;94.12
43701;BME280;58809;47.984;7.964;2023-06-22T06:07:43;97014.50;;;20.82;92.91
43701;BME280;58809;47.984;7.964;2023-06-22T06:10:44;97022.31;;;20.83;93.74
43701;BME280;58809;47.984;7.964;2023-06-22T06:13:46;97041.22;;;20.49;96.16
43701;BME280;58809;47.984;7.964;2023-06-22T06:16:48;97044.22;;;20.70;94.56
43701;BME280;58809;47.984;7.964;2023-06-22T06:19:50;97046.22;;;20.80;92.14
43701;BME280;58809;47.984;7.964;2023-06-22T06:22:52;97049.91;;;20.56;91.97
43701;BME280;58809;47.984;7.964;2023-06-22T06:25:53;97037.31;;;20.40;94.42
43701;BME280;58809;47.984;7.964;2023-06-22T06:28:56;97060.88;;;20.33;96.84
43701;BME280;58809;47.984;7.964;2023-06-22T06:31:57;97056.44;;;20.44;97.41
43701;BME280;58809;47.984;7.964;2023-06-22T06:34:59;97065.44;;;20.71;96.05
43701;BME280;58809;47.984;7.964;2023-06-22T06:38:01;97071.34;;;21.12;94.00
43701;BME280;58809;47.984;7.964;2023-06-22T06:41:03;97086.81;;;21.77;90.06
43701;BME280;58809;47.984;7.964;2023-06-22T06:44:05;97090.38;;;22.15;87.40
43701;BME280;58809;47.984;7.964;2023-06-22T06:47:06;97100.38;;;22.62;84.50
43701;BME280;58809;47.984;7.964;2023-06-22T06:50:08;97128.06;;;22.95;82.60
43701;BME280;58809;47.984;7.964;2023-06-22T06:53:11;97148.16;;;22.66;82.04
43701;BME280;58809;47.984;7.964;2023-06-22T06:56:12;97157.97;;;22.40;83.84
43701;BME280;58809;47.984;7.964;2023-06-22T06:59:14;97174.84;;;22.30;84.53
43701;BME280;58809;47.984;7.964;2023-06-22T07:02:17;97205.94;;;22.11;85.53
43701;BME280;58809;47.984;7.964;2023-06-22T07:05:20;97184.06;;;22.07;85.24
43701;BME280;58809;47.984;7.964;2023-06-22T07:08:21;97186.22;;;22.05;84.36
43701;BME280;58809;47.984;7.964;2023-06-22T07:11:23;97146.59;;;22.06;84.15
43701;BME280;58809;47.984;7.964;2023-06-22T07:14:24;97169.06;;;22.17;84.51
43701;BME280;58809;47.984;7.964;2023-06-22T07:17:26;97174.19;;;22.51;84.71
43701;BME280;58809;47.984;7.964;2023-06-22T07:20:28;97165.97;;;23.10;82.83
43701;BME280;58809;47.984;7.964;2023-06-22T07:23:30;97176.50;;;23.80;79.43
43701;BME280;58809;47.984;7.964;2023-06-22T07:26:32;97164.91;;;23.95;78.35
43701;BME280;58809;47.984;7.964;2023-06-22T07:29:33;97176.53;;;23.85;78.73
43701;BME280;58809;47.984;7.964;2023-06-22T07:32:36;97161.94;;;23.91;78.85
43701;BME280;58809;47.984;7.964;2023-06-22T07:35:37;97201.41;;;24.02;78.43
43701;BME280;58809;47.984;7.964;2023-06-22T07:38:39;97199.75;;;23.91;78.42
43701;BME280;58809;47.984;7.964;2023-06-22T07:41:40;97193.72;;;23.74;78.84
43701;BME280;58809;47.984;7.964;2023-06-22T07:44:42;97212.66;;;23.79;78.52
43701;BME280;58809;47.984;7.964;2023-06-22T07:47:43;97211.56;;;23.70;78.17
43701;BME280;58809;47.984;7.964;2023-06-22T07:50:45;97146.47;;;23.71;78.12
43701;BME280;58809;47.984;7.964;2023-06-22T07:53:47;97120.00;;;23.73;78.85
43701;BME280;58809;47.984;7.964;2023-06-22T07:56:48;97117.03;;;23.75;78.80
43701;BME280;58809;47.984;7.964;2023-06-22T07:59:50;97135.44;;;23.88;79.38
43701;BME280;58809;47.984;7.964;2023-06-22T08:02:51;97143.31;;;24.31;78.58
43701;BME280;58809;47.984;7.964;2023-06-22T08:05:53;97131.06;;;24.90;75.46
43701;BME280;58809;47.984;7.964;2023-06-22T08:08:55;97108.84;;;25.58;72.48
43701;BME280;58809;47.984;7.964;2023-06-22T08:12:00;97098.47;;;26.10;69.68
43701;BME280;58809;47.984;7.964;2023-06-22T08:15:02;97099.25;;;26.45;68.16
43701;BME280;58809;47.984;7.964;2023-06-22T08:18:05;97096.78;;;26.78;66.54
43701;BME280;58809;47.984;7.964;2023-06-22T08:21:06;97104.81;;;26.88;65.13
43701;BME280;58809;47.984;7.964;2023-06-22T08:24:08;97108.84;;;26.66;65.32
43701;BME280;58809;47.984;7.964;2023-06-22T08:27:10;97093.50;;;26.81;64.79
43701;BME280;58809;47.984;7.964;2023-06-22T08:30:16;97099.19;;;27.03;63.91
43701;BME280;58809;47.984;7.964;2023-06-22T08:33:19;97072.41;;;26.73;64.38
43701;BME280;58809;47.984;7.964;2023-06-22T08:36:28;97060.44;;;26.74;63.94
43701;BME280;58809;47.984;7.964;2023-06-22T08:39:33;97066.28;;;26.86;63.59
43701;BME280;58809;47.984;7.964;2023-06-22T08:42:37;97064.56;;;26.71;64.17
43701;BME280;58809;47.984;7.964;2023-06-22T08:45:39;97065.72;;;26.89;64.08
43701;BME280;58809;47.984;7.964;2023-06-22T08:48:41;97056.16;;;26.92;63.57
43701;BME280;58809;47.984;7.964;2023-06-22T08:51:43;97036.09;;;27.12;63.56
43701;BME280;58809;47.984;7.964;2023-06-22T08:54:47;97039.19;;;27.24;63.06
43701;BME280;58809;47.984;7.964;2023-06-22T08:57:49;97044.28;;;27.50;62.88
43701;BME280;58809;47.984;7.964;2023-06-22T09:00:50;97052.84;;;27.95;61.42
43701;BME280;58809;47.984;7.964;2023-06-22T09:03:53;97034.53;;;28.00;60.77
43701;BME280;58809;47.984;7.964;2023-06-22T09:07:02;97017.16;;;28.29;59.83
43701;BME280;58809;47.984;7.964;2023-06-22T09:10:05;97036.75;;;28.59;59.32
43701;BME280;58809;47.984;7.964;2023-06-22T09:13:07;97014.53;;;28.52;59.33
43701;BME280;58809;47.984;7.964;2023-06-22T09:16:08;97015.56;;;28.28;59.38
43701;BME280;58809;47.984;7.964;2023-06-22T09:19:10;97017.38;;;28.33;59.48
43701;BME280;58809;47.984;7.964;2023-06-22T09:22:12;97008.34;;;28.65;58.76
43701;BME280;58809;47.984;7.964;2023-06-22T09:25:13;97017.97;;;28.99;57.84
43701;BME280;58809;47.984;7.964;2023-06-22T09:28:15;97003.31;;;29.36;56.75
43701;BME280;58809;47.984;7.964;2023-06-22T09:31:16;96993.00;;;29.56;55.83
43701;BME280;58809;47.984;7.964;2023-06-22T09:34:18;96987.28;;;29.80;55.60
43701;BME280;58809;47.984;7.964;2023-06-22T09:37:21;96983.22;;;30.00;55.35
43701;BME280;58809;47.984;7.964;2023-06-22T09:40:23;96984.13;;;30.18;55.27
43701;BME280;58809;47.984;7.964;2023-06-22T09:43:24;96979.97;;;30.29;55.23
43701;BME280;58809;47.984;7.964;2023-06-22T09:46:26;96982.31;;;30.36;55.00
43701;BME280;58809;47.984;7.964;2023-06-22T09:49:27;96971.59;;;30.48;54.86
43701;BME280;58809;47.984;7.964;2023-06-22T09:52:48;96975.81;;;30.63;54.67
43701;BME280;58809;47.984;7.964;2023-06-22T09:55:52;96966.91;;;30.40;54.85
43701;BME280;58809;47.984;7.964;2023-06-22T09:58:53;96971.19;;;30.73;53.91
43701;BME280;58809;47.984;7.964;2023-06-22T10:02:06;96957.78;;;30.45;54.38
43701;BME280;58809;47.984;7.964;2023-06-22T10:05:08;96965.81;;;30.59;54.03
43701;BME280;58809;47.984;7.964;2023-06-22T10:08:11;96975.44;;;30.96;53.34
43701;BME280;58809;47.984;7.964;2023-06-22T10:11:13;96961.94;;;31.26;52.75
43701;BME280;58809;47.984;7.964;2023-06-22T10:14:15;96950.03;;;31.39;52.15
43701;BME280;58809;47.984;7.964;2023-06-22T10:17:16;96941.06;;;31.56;51.29
43701;BME280;58809;47.984;7.964;2023-06-22T10:20:18;96931.38;;;31.68;50.95
43701;BME280;58809;47.984;7.964;2023-06-22T10:23:20;96920.41;;;31.76;50.43
43701;BME280;58809;47.984;7.964;2023-06-22T10:26:21;96919.19;;;32.12;49.28
43701;BME280;58809;47.984;7.964;2023-06-22T10:29:23;96937.13;;;32.69;48.36
43701;BME280;58809;47.984;7.964;2023-06-22T10:32:24;96963.91;;;33.35;48.20
43701;BME280;58809;47.984;7.964;2023-06-22T10:35:26;96958.00;;;33.46;47.00
43701;BME280;58809;47.984;7.964;2023-06-22T10:38:28;96953.75;;;33.36;46.76
43701;BME280;58809;47.984;7.964;2023-06-22T10:41:30;96951.66;;;32.91;46.58
43701;BME280;58809;47.984;7.964;2023-06-22T10:44:32;96955.81;;;32.29;47.09
43701;BME280;58809;47.984;7.964;2023-06-22T10:47:34;96969.13;;;31.83;47.62
43701;BME280;58809;47.984;7.964;2023-06-22T10:50:35;96977.72;;;31.29;48.40
43701;BME280;58809;47.984;7.964;2023-06-22T10:53:37;97000.41;;;30.72;50.69
43701;BME280;58809;47.984;7.964;2023-06-22T10:56:40;97003.72;;;30.20;53.15
43701;BME280;58809;47.984;7.964;2023-06-22T10:59:41;96998.91;;;29.94;54.74
43701;BME280;58809;47.984;7.964;2023-06-22T11:02:43;97001.69;;;30.03;54.50
43701;BME280;58809;47.984;7.964;2023-06-22T11:05:45;97029.53;;;30.14;54.18
43701;BME280;58809;47.984;7.964;2023-06-22T11:08:49;97026.97;;;30.18;54.26
43701;BME280;58809;47.984;7.964;2023-06-22T11:12:07;97057.03;;;30.89;53.12
43701;BME280;58809;47.984;7.964;2023-06-22T11:15:09;97051.81;;;31.19;51.96
43701;BME280;58809;47.984;7.964;2023-06-22T11:18:10;97055.09;;;31.56;51.36
43701;BME280;58809;47.984;7.964;2023-06-22T11:21:12;97037.97;;;32.20;50.53
43701;BME280;58809;47.984;7.964;2023-06-22T11:24:13;97046.50;;;32.74;50.00
43701;BME280;58809;47.984;7.964;2023-06-22T11:27:15;97044.81;;;32.91;48.52
43701;BME280;58809;47.984;7.964;2023-06-22T11:30:17;97045.84;;;33.07;48.14
43701;BME280;58809;47.984;7.964;2023-06-22T11:33:18;97025.72;;;33.33;46.83
43701;BME280;58809;47.984;7.964;2023-06-22T11:36:20;97054.59;;;33.51;45.36
43701;BME280;58809;47.984;7.964;2023-06-22T11:39:21;97055.88;;;33.33;45.30
43701;BME280;58809;47.984;7.964;2023-06-22T11:42:40;97070.47;;;33.25;45.66
43701;BME280;58809;47.984;7.964;2023-06-22T11:45:41;97061.69;;;32.72;44.92
43701;BME280;58809;47.984;7.964;2023-06-22T11:48:43;97047.09;;;32.41;41.03
43701;BME280;58809;47.984;7.964;2023-06-22T11:51:45;97043.38;;;32.46;38.64
43701;BME280;58809;47.984;7.964;2023-06-22T11:54:47;97034.25;;;32.33;38.28
43701;BME280;58809;47.984;7.964;2023-06-22T11:57:54;97028.31;;;32.22;41.35
43701;BME280;58809;47.984;7.964;2023-06-22T12:00:57;97042.84;;;31.71;42.42
43701;BME280;58809;47.984;7.964;2023-06-22T12:03:59;97033.16;;;31.30;42.00
43701;BME280;58809;47.984;7.964;2023-06-22T12:07:01;97024.00;;;31.25;42.10
43701;BME280;58809;47.984;7.964;2023-06-22T12:10:04;97017.91;;;31.37;42.14
43701;BME280;58809;47.984;7.964;2023-06-22T12:13:05;97022.41;;;31.33;40.72
43701;BME280;58809;47.984;7.964;2023-06-22T12:16:07;97026.41;;;31.36;40.38
43701;BME280;58809;47.984;7.964;2023-06-22T12:19:09;97012.13;;;31.39;40.08
43701;BME280;58809;47.984;7.964;2023-06-22T12:22:11;97012.75;;;31.71;38.62
43701;BME280;58809;47.984;7.964;2023-06-22T12:25:12;97037.84;;;31.90;38.14
43701;BME280;58809;47.984;7.964;2023-06-22T12:28:14;97036.59;;;31.79;38.41
43701;BME280;58809;47.984;7.964;2023-06-22T12:31:15;97034.94;;;31.43;38.85
43701;BME280;58809;47.984;7.964;2023-06-22T12:34:17;97047.13;;;31.02;39.94
43701;BME280;58809;47.984;7.964;2023-06-22T12:37:19;97069.22;;;30.51;42.03
43701;BME280;58809;47.984;7.964;2023-06-22T12:40:20;97078.28;;;30.07;46.25
43701;BME280;58809;47.984;7.964;2023-06-22T12:43:22;97113.00;;;29.42;52.02
43701;BME280;58809;47.984;7.964;2023-06-22T12:46:23;97111.50;;;28.94;55.66
43701;BME280;58809;47.984;7.964;2023-06-22T12:49:25;97110.69;;;29.08;56.06
43701;BME280;58809;47.984;7.964;2023-06-22T12:52:26;97123.03;;;29.33;55.43
43701;BME280;58809;47.984;7.964;2023-06-22T12:55:28;97113.59;;;28.97;55.20
43701;BME280;58809;47.984;7.964;2023-06-22T12:58:29;97112.38;;;28.62;55.25
43701;BME280;58809;47.984;7.964;2023-06-22T13:01:31;97095.47;;;28.32;55.18
43701;BME280;58809;47.984;7.964;2023-06-22T13:04:33;97102.94;;;28.40;54.11
43701;BME280;58809;47.984;7.964;2023-06-22T13:07:36;97101.28;;;28.58;53.44
43701;BME280;58809;47.984;7.964;2023-06-22T13:10:37;97102.53;;;29.08;52.76
43701;BME280;58809;47.984;7.964;2023-06-22T13:13:39;97105.00;;;29.96;51.39
43701;BME280;58809;47.984;7.964;2023-06-22T13:16:41;97093.72;;;30.34;50.31
43701;BME280;58809;47.984;7.964;2023-06-22T13:19:43;97085.91;;;30.41;49.98
43701;BME280;58809;47.984;7.964;2023-06-22T13:22:45;97078.47;;;30.10;50.20
43701;BME280;58809;47.984;7.964;2023-06-22T13:25:47;97073.06;;;30.19;49.91
43701;BME280;58809;47.984;7.964;2023-06-22T13:28:48;97072.25;;;30.19;49.47
43701;BME280;58809;47.984;7.964;2023-06-22T13:31:50;97077.53;;;29.92;49.57
43701;BME280;58809;47.984;7.964;2023-06-22T13:35:10;97085.78;;;29.79;50.36
43701;BME280;58809;47.984;7.964;2023-06-22T13:38:29;97090.22;;;31.05;48.56
43701;BME280;58809;47.984;7.964;2023-06-22T13:41:50;97080.50;;;32.17;46.12
43701;BME280;58809;47.984;7.964;2023-06-22T13:44:51;97077.38;;;31.23;47.98
43701;BME280;58809;47.984;7.964;2023-06-22T13:48:11;97088.34;;;30.29;49.90
43701;BME280;58809;47.984;7.964;2023-06-22T13:51:13;97117.50;;;29.61;51.52
43701;BME280;58809;47.984;7.964;2023-06-22T13:54:15;97135.59;;;29.01;53.24
43701;BME280;58809;47.984;7.964;2023-06-22T13:57:30;97121.81;;;28.51;53.66
43701;BME280;58809;47.984;7.964;2023-06-22T14:00:32;97110.44;;;28.16;53.66
43701;BME280;58809;47.984;7.964;2023-06-22T14:03:34;97080.13;;;27.90;54.05
43701;BME280;58809;47.984;7.964;2023-06-22T14:06:36;97059.25;;;27.66;55.05
43701;BME280;58809;47.984;7.964;2023-06-22T14:09:37;97064.97;;;27.45;55.73
43701;BME280;58809;47.984;7.964;2023-06-22T14:12:39;97042.50;;;27.40;56.04
43701;BME280;58809;47.984;7.964;2023-06-22T14:15:40;97038.25;;;27.53;56.17
43701;BME280;58809;47.984;7.964;2023-06-22T14:18:42;97052.44;;;27.50;56.56
43701;BME280;58809;47.984;7.964;2023-06-22T14:21:44;97064.97;;;27.45;57.20
43701;BME280;58809;47.984;7.964;2023-06-22T14:24:46;97043.41;;;27.54;57.63
43701;BME280;58809;47.984;7.964;2023-06-22T14:27:47;97029.19;;;27.76;56.57
43701;BME280;58809;47.984;7.964;2023-06-22T14:30:49;97036.81;;;27.93;56.14
43701;BME280;58809;47.984;7.964;2023-06-22T14:33:50;97030.13;;;28.05;56.04
43701;BME280;58809;47.984;7.964;2023-06-22T14:36:52;97031.41;;;27.74;57.15
43701;BME280;58809;47.984;7.964;2023-06-22T14:39:53;97014.63;;;27.34;58.37
43701;BME280;58809;47.984;7.964;2023-06-22T14:42:55;97009.25;;;27.29;58.64
43701;BME280;58809;47.984;7.964;2023-06-22T14:45:58;97011.59;;;27.88;57.21
43701;BME280;58809;47.984;7.964;2023-06-22T14:48:59;97021.88;;;28.70;55.70
43701;BME280;58809;47.984;7.964;2023-06-22T14:52:01;97012.97;;;29.65;54.94
43701;BME280;58809;47.984;7.964;2023-06-22T14:55:03;97020.47;;;29.60;55.50
43701;BME280;58809;47.984;7.964;2023-06-22T14:58:04;97029.97;;;29.12;58.10
43701;BME280;58809;47.984;7.964;2023-06-22T15:01:06;97033.03;;;28.83;59.35
43701;BME280;58809;47.984;7.964;2023-06-22T15:04:09;97043.56;;;28.29;61.18
43701;BME280;58809;47.984;7.964;2023-06-22T15:07:11;97039.47;;;27.79;61.59
43701;BME280;58809;47.984;7.964;2023-06-22T15:10:12;97024.81;;;27.61;60.95
43701;BME280;58809;47.984;7.964;2023-06-22T15:13:14;97022.59;;;27.82;60.62
43701;BME280;58809;47.984;7.964;2023-06-22T15:16:16;97038.28;;;28.18;58.71
43701;BME280;58809;47.984;7.964;2023-06-22T15:19:17;97027.31;;;29.93;54.67
43701;BME280;58809;47.984;7.964;2023-06-22T15:22:19;97031.75;;;36.47;41.74
43701;BME280;58809;47.984;7.964;2023-06-22T15:25:21;97026.03;;;38.59;37.19
43701;BME280;58809;47.984;7.964;2023-06-22T15:28:23;97010.34;;;36.72;38.07
43701;BME280;58809;47.984;7.964;2023-06-22T15:31:26;97010.28;;;34.86;40.74
43701;BME280;58809;47.984;7.964;2023-06-22T15:34:28;97008.41;;;33.41;42.63
43701;BME280;58809;47.984;7.964;2023-06-22T15:37:30;96999.75;;;31.68;44.98
43701;BME280;58809;47.984;7.964;2023-06-22T15:40:31;97001.81;;;30.61;47.60
43701;BME280;58809;47.984;7.964;2023-06-22T15:43:33;97000.09;;;30.02;49.39
43701;BME280;58809;47.984;7.964;2023-06-22T15:46:35;96998.81;;;29.18;50.68
43701;BME280;58809;47.984;7.964;2023-06-22T15:49:37;96997.34;;;28.70;50.73
43701;BME280;58809;47.984;7.964;2023-06-22T15:52:41;96989.88;;;28.76;51.14
43701;BME280;58809;47.984;7.964;2023-06-22T15:55:43;96984.59;;;28.93;50.86
43701;BME280;58809;47.984;7.964;2023-06-22T15:58:45;96981.38;;;28.91;51.02
43701;BME280;58809;47.984;7.964;2023-06-22T16:01:46;96986.53;;;28.93;51.46
43701;BME280;58809;47.984;7.964;2023-06-22T16:04:48;96990.78;;;28.85;51.86
43701;BME280;58809;47.984;7.964;2023-06-22T16:07:50;96982.72;;;28.80;51.59